Latest Weather Observations for Yunta

IDS60801

Issued at 10:05 am CDT Wednesday 22 October 2014 (issued every 30 minutes, with the page automatically refreshed every 10 minutes)

About weather observations | Map of weather stations | Latest weather observations for SA | Other Formats
Station Details ID: 020062 Name: YUNTA AIRSTRIP Lat: -32.57 Lon: 139.56 Height: 300.0 m
Data from the previous 72 hours. | See also: Recent months at Yunta
Date/Time
CDT
Temp
°C
App
Temp
°C
Dew
Point
Rel
Hum
%
Delta-T
°C
Wind Press
QNH
hPa
Press
MSL
hPa
Rain
since 9 am
mm
Dir
 
Spd
km/h
Gust
km/h
Spd
kts
Gust
kts
22/10:00am 33.1 30.6 -1.3 11 16.6 W 2 11 1 6 1017.7 1017.1 0.0
22/09:30am 30.9 27.5 -1.8 12 15.4 N 6 9 3 5 1017.6 1017.0 0.0
22/09:00am 29.5 27.3 -1.8 13 14.6 CALM 0 2 0 1 1017.5 1016.9 0.0
22/08:30am 26.0 23.1 -0.9 17 12.4 N 4 7 2 4 1017.3 1016.7 0.0
22/08:25am 25.5 22.7 -0.5 18 12.1 N 4 7 2 4 1017.3 1016.7 0.0
22/08:00am 20.5 17.2 -0.2 25 9.3 N 7 11 4 6 1017.4 1016.8 0.0
22/07:30am 20.2 16.9 -1.0 24 9.3 SSW 6 7 3 4 1017.6 1017.0 0.0
22/07:00am 17.6 15.4 -1.6 27 8.2 CALM 0 0 0 0 1017.4 1016.8 0.0
22/06:30am 16.2 13.1 -2.3 28 7.6 NNE 4 7 2 4 1016.9 1016.3 0.0
22/06:00am 17.9 14.5 -1.9 26 8.4 ENE 6 9 3 5 1017.0 1016.4 0.0
22/05:30am 18.8 15.2 -2.2 24 8.9 N 7 13 4 7 1016.9 1016.3 0.0
22/05:00am 21.1 18.1 -2.0 21 10.1 SW 4 11 2 6 1016.4 1015.8 0.0
22/04:30am 20.6 17.6 -1.8 22 9.7 ESE 4 7 2 4 1015.9 1015.3 0.0
22/04:00am 23.2 17.8 -1.0 20 10.9 WSW 17 26 9 14 1015.8 1015.2 0.0
22/03:30am 21.8 18.5 -1.5 21 10.3 S 6 7 3 4 1015.8 1015.2 0.0
22/03:00am 23.0 19.7 -1.1 20 10.8 NNE 6 9 3 5 1015.8 1015.2 0.0
22/02:30am 23.5 20.2 -1.4 19 11.2 N 6 7 3 4 1016.1 1015.5 0.0
22/02:00am 24.9 20.7 -1.0 18 11.9 NNW 11 13 6 7 1016.5 1015.9 0.0
22/01:30am 23.8 19.5 -1.9 18 11.5 N 11 13 6 7 1016.9 1016.3 0.0
22/01:00am 26.4 21.5 -3.2 14 13.2 N 13 15 7 8 1017.4 1016.8 0.0
22/12:30am 30.6 25.5 -2.0 12 15.3 NNE 15 22 8 12 1017.5 1016.9 0.0
22/12:08am 31.9 24.7 -2.2 11 16.1 NE 26 33 14 18 1018.0 1017.4 0.0
22/12:05am 31.8 21.3 -1.1 12 15.8 N 44 65 24 35 1018.3 1017.7 0.0
22/12:00am 31.4 19.7 -1.4 12 15.6 NNW 50 65 27 35 1018.1 1017.5 0.0
 
Date/Time
CDT
Temp
°C
App
Temp
°C
Dew
Point
Rel
Hum
%
Delta-T
°C
Wind Press
QNH
hPa
Press
MSL
hPa
Rain
since 9 am
mm
Dir
 
Spd
km/h
Gust
km/h
Spd
kts
Gust
kts
21/11:59pm 30.7 19.0 -1.9 12 15.4 NNW 50 65 27 35 1018.0 1017.4 0.0
21/11:30pm 25.5 20.5 -3.9 14 12.8 N 13 15 7 8 1018.4 1017.8 0.0
21/11:00pm 25.7 20.8 -3.8 14 12.9 N 13 15 7 8 1018.7 1018.2 0.0
21/10:30pm 27.2 21.5 -3.6 13 13.7 NNW 17 20 9 11 1019.0 1018.4 0.0
21/10:00pm 26.1 21.2 -3.5 14 13.1 NNW 13 15 7 8 1018.7 1018.2 0.0
21/09:30pm 25.8 23.3 -3.7 14 12.9 CALM 0 2 0 1 1018.5 1018.0 0.0
21/09:00pm 24.9 21.9 -5.4 13 12.8 NNE 2 4 1 2 1018.4 1017.8 0.0
21/08:30pm 26.0 22.3 -4.5 13 13.2 NNE 6 6 3 3 1018.2 1017.6 0.0
21/08:00pm 28.3 25.1 -3.8 12 14.4 NE 4 6 2 3 1017.8 1017.2 0.0
21/07:30pm 30.6 27.7 -4.4 10 15.8 N 2 2 1 1 1017.6 1017.0 0.0
21/07:00pm 32.5 29.4 -3.0 10 16.6 N 4 7 2 4 1017.5 1016.9 0.0
21/06:30pm 34.2 30.1 -3.2 9 17.6 NNW 9 15 5 8 1017.5 1016.9 0.0
21/06:00pm 35.4 30.8 -3.8 8 18.5 NW 11 17 6 9 1017.4 1016.8 0.0
21/05:30pm 34.4 29.2 -3.0 9 17.7 N 15 22 8 12 1017.6 1017.0 0.0
21/05:00pm 34.7 29.5 -2.8 9 17.9 N 15 28 8 15 1017.6 1017.0 0.0
21/04:30pm 34.7 28.7 -2.8 9 17.9 N 19 32 10 17 1017.6 1017.0 0.0
21/04:00pm 35.1 29.9 -2.5 9 18.1 N 15 30 8 16 1017.7 1017.1 0.0
21/03:30pm 35.8 29.7 -2.0 9 18.4 N 20 32 11 17 1018.0 1017.4 0.0
21/03:00pm 35.6 28.6 -3.7 8 18.6 N 24 39 13 21 1018.3 1017.7 0.0
21/02:30pm 35.7 29.8 -2.0 9 18.3 NNW 19 32 10 17 1018.6 1018.1 0.0
21/02:00pm 36.3 30.3 -3.2 8 18.9 NNE 19 28 10 15 1019.2 1018.6 0.0
21/01:30pm 35.8 31.1 -2.0 9 18.4 NNW 13 26 7 14 1019.4 1018.8 0.0
21/01:00pm 35.5 28.5 -3.8 8 18.6 N 24 32 13 17 1019.8 1019.2 0.0
21/12:30pm 35.5 29.2 -0.8 10 17.9 N 22 35 12 19 1020.1 1019.5 0.0
21/12:00pm 34.4 28.0 -1.6 10 17.4 N 22 33 12 18 1020.5 1019.9 0.0
21/11:30am 32.6 25.8 -1.7 11 16.4 N 24 35 13 19 1020.8 1020.2 0.0
21/11:00am 33.1 25.6 -1.3 11 16.6 N 28 41 15 22 1021.0 1020.4 0.0
21/10:30am 33.2 26.5 -1.2 11 16.6 N 24 33 13 18 1021.3 1020.7 0.0
21/10:00am 31.7 26.3 -1.2 12 15.8 N 17 26 9 14 1021.5 1021.0 0.0
21/09:30am 31.1 25.1 -1.6 12 15.5 NE 20 28 11 15 1021.4 1020.9 0.0
21/09:00am 29.4 23.4 -1.9 13 14.6 ENE 20 28 11 15 1021.3 1020.7 0.0
21/08:30am 27.1 20.4 -0.9 16 13.0 ENE 24 35 13 19 1021.0 1020.4 0.0
21/08:00am 25.2 19.6 0.0 19 11.8 ENE 19 28 10 15 1021.0 1020.4 0.0
21/07:30am 23.4 18.6 -0.1 21 10.8 ENE 15 24 8 13 1021.1 1020.5 0.0
21/07:00am 20.2 16.9 0.1 26 9.1 SE 7 9 4 5 1020.9 1020.3 0.0
21/06:30am 18.7 15.4 0.3 29 8.2 SE 7 9 4 5 1020.6 1020.0 0.0
21/06:00am 18.6 15.3 0.2 29 8.2 SE 7 9 4 5 1020.4 1019.8 0.0
21/05:30am 18.3 15.2 0.4 30 8.0 ESE 6 11 3 6 1020.3 1019.7 0.0
21/05:00am 16.4 14.5 0.5 34 7.0 CALM 0 0 0 0 1020.4 1019.8 0.0
21/04:30am 16.1 13.1 1.0 36 6.7 S 6 9 3 5 1020.3 1019.7 0.0
21/04:00am 15.5 12.8 0.1 35 6.7 SW 4 6 2 3 1020.4 1019.8 0.0
21/03:30am 16.0 13.2 -0.2 33 7.0 WSW 4 6 2 3 1020.6 1020.0 0.0
21/03:00am 17.0 13.3 0.2 32 7.4 WSW 9 11 5 6 1020.7 1020.1 0.0
21/02:30am 17.3 14.1 -0.4 30 7.7 SW 6 7 3 4 1020.9 1020.3 0.0
21/02:00am 18.4 15.9 -0.9 27 8.4 SSW 2 4 1 2 1021.0 1020.4 0.0
21/01:30am 19.1 17.0 -0.8 26 8.7 CALM 0 0 0 0 1021.2 1020.6 0.0
21/01:00am 19.2 17.0 -1.8 24 9.0 CALM 0 0 0 0 1021.5 1021.0 0.0
21/12:30am 18.4 15.7 -2.5 24 8.8 E 2 4 1 2 1021.6 1021.1 0.0
21/12:00am 18.2 15.1 -2.7 24 8.7 ESE 4 6 2 3 1021.7 1021.2 0.0
 
Date/Time
CDT
Temp
°C
App
Temp
°C
Dew
Point
Rel
Hum
%
Delta-T
°C
Wind Press
QNH
hPa
Press
MSL
hPa
Rain
since 9 am
mm
Dir
 
Spd
km/h
Gust
km/h
Spd
kts
Gust
kts
20/11:30pm 18.7 15.2 -2.8 23 9.0 ESE 6 7 3 4 1021.8 1021.3 0.0
20/11:00pm 20.4 17.3 -2.6 21 9.8 E 4 4 2 2 1021.7 1021.2 0.0
20/10:30pm 21.3 17.6 -2.5 20 10.2 ENE 7 9 4 5 1021.6 1021.1 0.0
20/10:00pm 22.3 18.7 -2.4 19 10.8 ENE 7 9 4 5 1021.5 1021.0 0.0
20/09:30pm 23.5 19.9 -2.2 18 11.3 E 7 9 4 5 1021.4 1020.9 0.0
20/09:00pm 23.9 20.3 -1.8 18 11.5 ENE 7 9 4 5 1021.2 1020.6 0.0
20/08:30pm 25.9 22.0 -1.8 16 12.6 ESE 9 11 5 6 1020.9 1020.3 0.0
20/08:00pm 28.5 24.1 -2.6 13 14.2 E 11 15 6 8 1020.5 1019.9 0.0
20/07:30pm 30.3 25.5 -2.2 12 15.1 E 13 19 7 10 1020.1 1019.5 0.0
20/07:00pm 31.3 25.5 -1.5 12 15.6 ESE 19 26 10 14 1019.8 1019.2 0.0
20/06:30pm 32.0 26.3 -0.9 12 15.9 E 19 26 10 14 1019.5 1018.9 0.0
20/06:00pm 32.4 26.7 -0.6 12 16.0 SE 19 26 10 14 1019.4 1018.8 0.0
20/05:30pm 32.8 27.0 -0.3 12 16.2 SE 20 30 11 16 1019.4 1018.8 0.0
20/05:00pm 33.5 27.9 0.2 12 16.6 SE 19 26 10 14 1019.4 1018.8 0.0
20/04:30pm 32.5 27.8 0.6 13 15.8 SE 15 26 8 14 1019.8 1019.2 0.0
20/04:00pm 33.4 29.3 0.1 12 16.5 SE 11 26 6 14 1019.9 1019.3 0.0
20/03:30pm 33.3 29.0 1.2 13 16.2 E 13 24 7 13 1020.3 1019.7 0.0
20/03:00pm 32.7 29.3 1.7 14 15.7 S 9 17 5 9 1020.8 1020.2 0.0
20/02:30pm 32.3 28.6 2.4 15 15.3 SSE 11 22 6 12 1021.4 1020.9 0.0
20/02:00pm 30.4 28.2 3.4 18 13.9 SSE 4 13 2 7 1022.0 1021.5 0.0
20/01:30pm 29.8 26.6 2.9 18 13.6 SE 9 19 5 10 1022.6 1022.0 0.0
20/01:00pm 28.2 25.8 5.1 23 12.1 SE 7 15 4 8 1023.0 1022.4 0.0
20/12:30pm 27.0 24.0 5.9 26 11.1 SSE 11 17 6 9 1023.5 1022.9 0.0
20/12:00pm 24.7 22.2 6.4 31 9.5 SE 9 15 5 8 1023.9 1023.3 0.0
20/11:30am 23.8 21.5 7.4 35 8.7 ESE 9 17 5 9 1024.4 1023.9 0.0
20/11:00am 22.0 20.1 9.2 44 6.9 SE 9 15 5 8 1024.8 1024.3 0.0
20/10:30am 19.4 17.4 8.7 50 5.6 SSE 9 15 5 8 1025.2 1024.7 0.0
20/10:00am 18.0 15.8 9.4 57 4.6 SE 11 17 6 9 1025.3 1024.8 0.0
20/09:30am 16.9 14.7 9.3 61 4.0 SSE 11 17 6 9 1025.2 1024.7 0.0
20/09:00am 16.0 13.8 9.4 65 3.5 SSE 11 15 6 8 1025.4 1024.9 0.0
20/08:30am 14.9 12.7 9.5 70 2.8 S 11 15 6 8 1025.3 1024.8 0.0
20/08:00am 14.3 12.1 9.5 73 2.5 S 11 15 6 8 1024.9 1024.4 0.0
20/07:30am 13.4 11.6 9.5 77 2.0 S 9 13 5 7 1024.6 1024.1 0.0
20/07:00am 12.5 10.6 9.0 79 1.8 S 9 11 5 6 1024.3 1023.8 0.0
20/06:30am 11.7 10.0 8.4 80 1.6 SSW 7 9 4 5 1024.0 1023.4 0.0
20/06:00am 11.6 9.8 8.1 79 1.7 SSW 7 9 4 5 1023.6 1023.0 0.0
20/05:30am 12.2 10.6 7.9 75 2.1 SSW 6 9 3 5 1023.4 1022.8 0.0
20/05:00am 13.2 11.2 8.7 74 2.3 S 9 13 5 7 1023.3 1022.7 0.0
20/04:30am 13.4 11.4 8.7 73 2.4 S 9 13 5 7 1023.0 1022.4 0.0
20/04:00am 13.8 11.7 8.4 70 2.7 S 9 13 5 7 1022.9 1022.3 0.0
20/03:30am 13.6 11.4 8.0 69 2.8 S 9 11 5 6 1022.9 1022.3 0.0
20/03:00am 13.4 11.6 7.8 69 2.8 SSW 7 9 4 5 1023.0 1022.4 0.0
20/02:30am 13.9 11.4 8.1 68 2.9 SSW 11 13 6 7 1023.1 1022.5 0.0
20/02:00am 14.4 12.3 8.4 67 3.1 SW 9 13 5 7 1023.1 1022.5 0.0
20/01:30am 15.0 12.8 8.0 63 3.5 SSW 9 13 5 7 1023.1 1022.5 0.0
20/01:00am 15.9 13.7 7.7 58 4.2 SW 9 13 5 7 1023.3 1022.7 0.0
20/12:30am 17.3 15.1 7.9 54 4.8 SW 9 13 5 7 1023.3 1022.7 0.0
20/12:00am 18.4 14.9 8.9 54 5.0 S 17 26 9 14 1023.3 1022.7 0.0
 
Date/Time
CDT
Temp
°C
App
Temp
°C
Dew
Point
Rel
Hum
%
Delta-T
°C
Wind Press
QNH
hPa
Press
MSL
hPa
Rain
since 9 am
mm
Dir
 
Spd
km/h
Gust
km/h
Spd
kts
Gust
kts
19/11:30pm 21.0 16.6 6.5 39 7.4 S 19 28 10 15 1023.1 1022.5 0.0
19/11:00pm 22.8 17.1 0.6 23 10.3 SSW 20 28 11 15 1022.5 1021.9 0.0
19/10:30pm 19.5 15.7 -9.6 13 10.7 E 4 6 2 3 1021.6 1021.1 0.0
19/10:00pm 20.2 16.1 -9.1 13 11.0 E 6 9 3 5 1021.5 1021.0 0.0
19/09:30pm 21.7 18.7 -8.9 12 11.7 CALM 0 0 0 0 1021.4 1020.9 0.0
19/09:00pm 22.4 19.1 -8.4 12 11.9 NE 2 6 1 3 1021.1 1020.5 0.0
19/08:30pm 23.4 20.1 -8.7 11 12.5 ENE 2 6 1 3 1020.8 1020.2 0.0
19/08:00pm 25.2 20.6 -8.5 10 13.5 NE 9 11 5 6 1020.4 1019.8 0.0
19/07:30pm 27.9 23.3 -7.9 9 14.8 ENE 9 11 5 6 1020.3 1019.7 0.0
19/07:00pm 30.4 26.4 -7.5 8 16.2 E 6 9 3 5 1019.8 1019.2 0.0
19/06:30pm 31.2 27.3 -6.9 8 16.5 NE 6 9 3 5 1019.6 1019.0 0.0
19/06:00pm 32.8 29.2 -7.5 7 17.5 NNW 4 7 2 4 1019.5 1018.9 0.0
19/05:30pm 32.1 27.5 -8.0 7 17.2 N 9 19 5 10 1019.5 1018.9 0.0
19/05:00pm 32.1 27.1 -8.0 7 17.2 NNW 11 20 6 11 1019.5 1018.9 0.0
19/04:30pm 31.5 25.7 -8.4 7 16.9 NNW 15 28 8 15 1019.4 1018.8 0.0
19/04:00pm 32.8 27.5 -7.5 7 17.5 N 13 26 7 14 1019.3 1018.7 0.0
19/03:30pm 32.0 26.6 -8.1 7 17.1 NW 13 24 7 13 1019.8 1019.2 0.0
19/03:00pm 31.9 25.4 -8.1 7 17.1 NNW 19 30 10 16 1020.1 1019.5 0.0
19/02:30pm 32.5 26.0 -7.7 7 17.4 NW 19 30 10 16 1020.4 1019.8 0.0
19/02:00pm 30.8 25.5 -7.2 8 16.4 N 13 28 7 15 1020.7 1020.1 0.0
19/01:30pm 30.8 24.4 -7.2 8 16.3 NW 19 30 10 16 1021.0 1020.4 0.0
19/01:00pm 31.1 24.7 -7.0 8 16.5 N 19 30 10 16 1021.2 1020.6 0.0
19/12:30pm 31.1 23.9 -5.5 9 16.2 N 24 37 13 20 1021.5 1021.0 0.0
19/12:00pm 30.1 22.4 -6.2 9 15.7 NNW 26 39 14 21 1021.8 1021.3 0.0
19/11:30am 29.6 21.5 -6.6 9 15.5 N 28 41 15 22 1022.0 1021.5 0.0
19/11:00am 29.0 20.6 -5.7 10 15.1 N 30 46 16 25 1022.5 1021.9 0.0
19/10:30am 27.8 19.1 -5.3 11 14.3 N 32 41 17 22 1022.6 1022.0 0.0

Other Formats:

Comma delimited format used in spreadsheet applications
http://www.bom.gov.au/fwo/IDS60801/IDS60801.94684.axf

JavaScript Object Notation format (JSON) in row-major order
http://www.bom.gov.au/fwo/IDS60801/IDS60801.94684.json